sensor_id;sensor_type;location;lat;lon;timestamp;pressure;altitude;pressure_sealevel;temperature;humidity
68301;BME280;55146;47.468;18.806;2022-11-20T00:01:13;99725.56;;;2.92;82.36
68301;BME280;55146;47.468;18.806;2022-11-20T00:03:39;99732.44;;;2.95;82.06
68301;BME280;55146;47.468;18.806;2022-11-20T00:06:08;99726.50;;;2.86;80.93
68301;BME280;55146;47.468;18.806;2022-11-20T00:08:34;99736.00;;;2.95;81.74
68301;BME280;55146;47.468;18.806;2022-11-20T00:11:04;99730.78;;;2.94;80.43
68301;BME280;55146;47.468;18.806;2022-11-20T00:13:30;99730.53;;;2.83;81.10
68301;BME280;55146;47.468;18.806;2022-11-20T00:16:00;99731.38;;;2.96;81.16
68301;BME280;55146;47.468;18.806;2022-11-20T00:18:26;99734.94;;;2.96;81.13
68301;BME280;55146;47.468;18.806;2022-11-20T00:20:52;99731.12;;;2.97;81.31
68301;BME280;55146;47.468;18.806;2022-11-20T00:23:17;99739.66;;;3.01;81.43
68301;BME280;55146;47.468;18.806;2022-11-20T00:25:43;99731.25;;;2.91;81.09
68301;BME280;55146;47.468;18.806;2022-11-20T00:28:08;99720.25;;;2.85;81.52
68301;BME280;55146;47.468;18.806;2022-11-20T00:30:33;99708.00;;;2.95;81.83
68301;BME280;55146;47.468;18.806;2022-11-20T00:32:59;99707.72;;;2.84;81.02
68301;BME280;55146;47.468;18.806;2022-11-20T00:35:24;99713.03;;;2.79;80.84
68301;BME280;55146;47.468;18.806;2022-11-20T00:37:49;99728.19;;;2.87;80.36
68301;BME280;55146;47.468;18.806;2022-11-20T00:40:15;99735.59;;;2.80;80.92
68301;BME280;55146;47.468;18.806;2022-11-20T00:42:40;99742.34;;;2.89;79.45
68301;BME280;55146;47.468;18.806;2022-11-20T00:45:05;99733.25;;;2.83;78.63
68301;BME280;55146;47.468;18.806;2022-11-20T00:47:32;99729.91;;;2.70;80.15
68301;BME280;55146;47.468;18.806;2022-11-20T00:49:57;99734.03;;;2.72;81.15
68301;BME280;55146;47.468;18.806;2022-11-20T00:52:22;99726.72;;;2.73;80.68
68301;BME280;55146;47.468;18.806;2022-11-20T00:54:48;99735.69;;;2.73;80.85
68301;BME280;55146;47.468;18.806;2022-11-20T00:57:13;99731.47;;;2.77;82.39
68301;BME280;55146;47.468;18.806;2022-11-20T00:59:38;99728.38;;;2.74;82.86
68301;BME280;55146;47.468;18.806;2022-11-20T01:02:03;99736.53;;;2.74;82.04
68301;BME280;55146;47.468;18.806;2022-11-20T01:04:29;99738.75;;;2.65;81.39
68301;BME280;55146;47.468;18.806;2022-11-20T01:06:54;99742.34;;;2.77;81.89
68301;BME280;55146;47.468;18.806;2022-11-20T01:09:19;99744.31;;;2.70;83.49
68301;BME280;55146;47.468;18.806;2022-11-20T01:11:45;99739.25;;;2.85;81.59
68301;BME280;55146;47.468;18.806;2022-11-20T01:14:13;99748.78;;;2.65;81.79
68301;BME280;55146;47.468;18.806;2022-11-20T01:16:40;99740.06;;;2.74;82.33
68301;BME280;55146;47.468;18.806;2022-11-20T01:19:10;99749.66;;;2.77;80.87
68301;BME280;55146;47.468;18.806;2022-11-20T01:21:38;99747.28;;;2.80;80.91
68301;BME280;55146;47.468;18.806;2022-11-20T01:24:06;99747.78;;;2.89;81.81
68301;BME280;55146;47.468;18.806;2022-11-20T01:26:34;99752.59;;;2.75;81.91
68301;BME280;55146;47.468;18.806;2022-11-20T01:29:01;99745.84;;;2.78;80.92
68301;BME280;55146;47.468;18.806;2022-11-20T01:31:30;99742.47;;;2.82;80.52
68301;BME280;55146;47.468;18.806;2022-11-20T01:33:57;99746.12;;;2.88;80.02
68301;BME280;55146;47.468;18.806;2022-11-20T01:36:26;99742.72;;;2.93;80.60
68301;BME280;55146;47.468;18.806;2022-11-20T01:38:53;99743.19;;;2.90;80.69
68301;BME280;55146;47.468;18.806;2022-11-20T01:41:19;99735.72;;;2.97;81.27
68301;BME280;55146;47.468;18.806;2022-11-20T01:44:04;99738.00;;;3.00;82.27
68301;BME280;55146;47.468;18.806;2022-11-20T01:46:32;99735.19;;;3.06;83.31
68301;BME280;55146;47.468;18.806;2022-11-20T01:49:23;99731.75;;;3.11;83.05
68301;BME280;55146;47.468;18.806;2022-11-20T01:54:25;99717.69;;;3.02;84.74
68301;BME280;55146;47.468;18.806;2022-11-20T01:56:56;99719.94;;;3.05;84.82
68301;BME280;55146;47.468;18.806;2022-11-20T01:59:23;99717.56;;;3.09;84.64
68301;BME280;55146;47.468;18.806;2022-11-20T02:01:50;99708.47;;;3.03;84.33
68301;BME280;55146;47.468;18.806;2022-11-20T02:04:16;99715.22;;;3.12;84.42
68301;BME280;55146;47.468;18.806;2022-11-20T02:06:58;99720.75;;;3.06;84.23
68301;BME280;55146;47.468;18.806;2022-11-20T02:09:24;99726.91;;;3.01;84.34
68301;BME280;55146;47.468;18.806;2022-11-20T02:11:50;99733.19;;;3.13;84.59
68301;BME280;55146;47.468;18.806;2022-11-20T02:14:15;99730.56;;;3.07;85.26
68301;BME280;55146;47.468;18.806;2022-11-20T02:16:45;99721.94;;;2.98;85.60
68301;BME280;55146;47.468;18.806;2022-11-20T02:19:22;99730.34;;;3.08;85.10
68301;BME280;55146;47.468;18.806;2022-11-20T02:24:32;99732.91;;;3.03;85.14
68301;BME280;55146;47.468;18.806;2022-11-20T02:27:00;99724.66;;;3.10;84.62
68301;BME280;55146;47.468;18.806;2022-11-20T02:29:52;99722.31;;;3.02;84.81
68301;BME280;55146;47.468;18.806;2022-11-20T02:32:28;99708.34;;;2.98;84.87
68301;BME280;55146;47.468;18.806;2022-11-20T02:34:54;99706.84;;;3.02;84.45
68301;BME280;55146;47.468;18.806;2022-11-20T02:37:21;99703.50;;;2.89;84.45
68301;BME280;55146;47.468;18.806;2022-11-20T02:39:49;99699.22;;;2.81;84.86
68301;BME280;55146;47.468;18.806;2022-11-20T02:42:15;99701.34;;;2.91;84.92
68301;BME280;55146;47.468;18.806;2022-11-20T02:44:40;99705.84;;;2.97;84.95
68301;BME280;55146;47.468;18.806;2022-11-20T02:47:05;99701.59;;;2.77;85.54
68301;BME280;55146;47.468;18.806;2022-11-20T02:49:31;99709.97;;;2.76;85.95
68301;BME280;55146;47.468;18.806;2022-11-20T02:51:56;99708.09;;;2.88;85.72
68301;BME280;55146;47.468;18.806;2022-11-20T02:54:22;99707.16;;;2.82;85.42
68301;BME280;55146;47.468;18.806;2022-11-20T02:56:47;99707.59;;;2.79;85.73
68301;BME280;55146;47.468;18.806;2022-11-20T02:59:13;99702.75;;;2.70;85.64
68301;BME280;55146;47.468;18.806;2022-11-20T03:01:38;99700.50;;;2.78;85.55
68301;BME280;55146;47.468;18.806;2022-11-20T03:04:04;99693.47;;;2.89;85.34
68301;BME280;55146;47.468;18.806;2022-11-20T03:06:29;99683.06;;;2.86;85.32
68301;BME280;55146;47.468;18.806;2022-11-20T03:08:54;99686.09;;;2.78;85.29
68301;BME280;55146;47.468;18.806;2022-11-20T03:11:20;99692.16;;;2.92;85.96
68301;BME280;55146;47.468;18.806;2022-11-20T03:13:45;99704.31;;;2.77;87.09
68301;BME280;55146;47.468;18.806;2022-11-20T03:16:13;99694.41;;;2.95;86.89
68301;BME280;55146;47.468;18.806;2022-11-20T03:18:40;99699.47;;;3.03;86.99
68301;BME280;55146;47.468;18.806;2022-11-20T03:21:06;99699.13;;;2.99;86.63
68301;BME280;55146;47.468;18.806;2022-11-20T03:23:32;99697.34;;;2.93;87.03
68301;BME280;55146;47.468;18.806;2022-11-20T03:28:37;99717.22;;;3.05;86.41
68301;BME280;55146;47.468;18.806;2022-11-20T03:31:14;99717.81;;;2.96;85.66
68301;BME280;55146;47.468;18.806;2022-11-20T03:33:41;99720.25;;;2.85;86.11
68301;BME280;55146;47.468;18.806;2022-11-20T03:36:09;99730.31;;;2.97;87.07
68301;BME280;55146;47.468;18.806;2022-11-20T03:38:35;99727.00;;;2.95;87.09
68301;BME280;55146;47.468;18.806;2022-11-20T03:41:05;99724.59;;;2.75;87.64
68301;BME280;55146;47.468;18.806;2022-11-20T03:43:31;99724.03;;;2.84;88.48
68301;BME280;55146;47.468;18.806;2022-11-20T03:45:57;99724.53;;;2.93;88.15
68301;BME280;55146;47.468;18.806;2022-11-20T03:48:23;99722.75;;;2.99;87.89
68301;BME280;55146;47.468;18.806;2022-11-20T03:50:48;99718.37;;;2.98;88.04
68301;BME280;55146;47.468;18.806;2022-11-20T03:53:15;99725.38;;;3.05;88.03
68301;BME280;55146;47.468;18.806;2022-11-20T03:55:40;99712.84;;;3.16;87.87
68301;BME280;55146;47.468;18.806;2022-11-20T03:58:06;99706.84;;;3.14;88.35
68301;BME280;55146;47.468;18.806;2022-11-20T04:00:31;99703.41;;;3.07;89.07
68301;BME280;55146;47.468;18.806;2022-11-20T04:03:03;99712.94;;;3.09;89.27
68301;BME280;55146;47.468;18.806;2022-11-20T04:05:28;99697.47;;;2.98;89.85
68301;BME280;55146;47.468;18.806;2022-11-20T04:07:54;99709.06;;;3.05;88.64
68301;BME280;55146;47.468;18.806;2022-11-20T04:10:19;99697.03;;;3.01;88.75
68301;BME280;55146;47.468;18.806;2022-11-20T04:12:45;99691.69;;;2.95;89.56
68301;BME280;55146;47.468;18.806;2022-11-20T04:15:10;99690.53;;;3.02;89.04
68301;BME280;55146;47.468;18.806;2022-11-20T04:17:35;99676.22;;;2.95;88.93
68301;BME280;55146;47.468;18.806;2022-11-20T04:20:01;99659.78;;;2.90;90.06
68301;BME280;55146;47.468;18.806;2022-11-20T04:22:27;99655.56;;;2.82;90.42
68301;BME280;55146;47.468;18.806;2022-11-20T04:24:52;99655.56;;;2.94;89.47
68301;BME280;55146;47.468;18.806;2022-11-20T04:27:17;99668.53;;;2.80;88.82
68301;BME280;55146;47.468;18.806;2022-11-20T04:29:43;99676.22;;;2.83;88.43
68301;BME280;55146;47.468;18.806;2022-11-20T04:32:08;99680.13;;;2.99;88.21
68301;BME280;55146;47.468;18.806;2022-11-20T04:34:34;99677.62;;;3.09;88.00
68301;BME280;55146;47.468;18.806;2022-11-20T04:37:00;99674.69;;;2.99;88.51
68301;BME280;55146;47.468;18.806;2022-11-20T04:39:25;99664.16;;;2.91;88.06
68301;BME280;55146;47.468;18.806;2022-11-20T04:41:50;99657.44;;;2.94;87.90
68301;BME280;55146;47.468;18.806;2022-11-20T04:44:38;99654.28;;;3.08;88.01
68301;BME280;55146;47.468;18.806;2022-11-20T04:47:04;99652.25;;;3.04;87.62
68301;BME280;55146;47.468;18.806;2022-11-20T04:49:29;99655.44;;;3.01;88.14
68301;BME280;55146;47.468;18.806;2022-11-20T04:51:56;99653.19;;;2.98;88.05
68301;BME280;55146;47.468;18.806;2022-11-20T04:54:22;99660.66;;;3.14;87.45
68301;BME280;55146;47.468;18.806;2022-11-20T04:56:48;99654.00;;;3.10;87.36
68301;BME280;55146;47.468;18.806;2022-11-20T04:59:13;99652.84;;;3.06;88.21
68301;BME280;55146;47.468;18.806;2022-11-20T05:01:38;99656.72;;;3.10;88.09
68301;BME280;55146;47.468;18.806;2022-11-20T05:04:04;99651.28;;;3.10;88.26
68301;BME280;55146;47.468;18.806;2022-11-20T05:06:30;99655.91;;;3.09;88.57
68301;BME280;55146;47.468;18.806;2022-11-20T05:08:55;99659.09;;;3.18;88.44
68301;BME280;55146;47.468;18.806;2022-11-20T05:11:21;99666.53;;;3.11;88.23
68301;BME280;55146;47.468;18.806;2022-11-20T05:13:47;99659.94;;;3.07;87.75
68301;BME280;55146;47.468;18.806;2022-11-20T05:16:15;99645.63;;;3.00;87.85
68301;BME280;55146;47.468;18.806;2022-11-20T05:18:41;99646.22;;;3.02;88.00
68301;BME280;55146;47.468;18.806;2022-11-20T05:21:08;99659.22;;;3.11;88.44
68301;BME280;55146;47.468;18.806;2022-11-20T05:23:34;99657.66;;;3.04;86.84
68301;BME280;55146;47.468;18.806;2022-11-20T05:26:00;99640.53;;;3.03;87.50
68301;BME280;55146;47.468;18.806;2022-11-20T05:28:27;99641.34;;;3.15;87.20
68301;BME280;55146;47.468;18.806;2022-11-20T05:30:52;99639.25;;;3.17;87.27
68301;BME280;55146;47.468;18.806;2022-11-20T05:33:18;99645.16;;;3.14;87.93
68301;BME280;55146;47.468;18.806;2022-11-20T05:35:44;99639.38;;;3.11;88.39
68301;BME280;55146;47.468;18.806;2022-11-20T05:38:09;99640.06;;;3.18;88.26
68301;BME280;55146;47.468;18.806;2022-11-20T05:40:35;99648.94;;;3.13;87.72
68301;BME280;55146;47.468;18.806;2022-11-20T05:43:00;99645.16;;;3.14;87.40
68301;BME280;55146;47.468;18.806;2022-11-20T05:45:26;99648.00;;;3.19;88.20
68301;BME280;55146;47.468;18.806;2022-11-20T05:47:51;99651.88;;;3.23;88.32
68301;BME280;55146;47.468;18.806;2022-11-20T05:50:16;99649.87;;;3.19;88.64
68301;BME280;55146;47.468;18.806;2022-11-20T05:52:42;99650.81;;;3.24;88.50
68301;BME280;55146;47.468;18.806;2022-11-20T05:55:08;99651.41;;;3.15;88.72
68301;BME280;55146;47.468;18.806;2022-11-20T05:57:33;99661.00;;;3.06;89.06
68301;BME280;55146;47.468;18.806;2022-11-20T05:59:58;99659.66;;;2.97;89.49
68301;BME280;55146;47.468;18.806;2022-11-20T06:02:23;99660.66;;;3.02;89.92
68301;BME280;55146;47.468;18.806;2022-11-20T06:04:49;99657.56;;;3.10;89.93
68301;BME280;55146;47.468;18.806;2022-11-20T06:07:15;99659.09;;;3.18;89.78
68301;BME280;55146;47.468;18.806;2022-11-20T06:09:40;99653.31;;;3.14;89.93
68301;BME280;55146;47.468;18.806;2022-11-20T06:12:05;99656.03;;;3.14;89.94
68301;BME280;55146;47.468;18.806;2022-11-20T06:14:32;99666.53;;;3.11;90.67
68301;BME280;55146;47.468;18.806;2022-11-20T06:16:57;99670.09;;;3.11;90.71
68301;BME280;55146;47.468;18.806;2022-11-20T06:19:22;99674.56;;;3.17;90.43
68301;BME280;55146;47.468;18.806;2022-11-20T06:21:48;99677.62;;;3.09;90.70
68301;BME280;55146;47.468;18.806;2022-11-20T06:24:14;99676.00;;;3.08;90.93
68301;BME280;55146;47.468;18.806;2022-11-20T06:26:40;99664.66;;;3.11;90.80
68301;BME280;55146;47.468;18.806;2022-11-20T06:29:06;99672.78;;;3.11;90.90
68301;BME280;55146;47.468;18.806;2022-11-20T06:31:32;99680.94;;;3.11;91.41
68301;BME280;55146;47.468;18.806;2022-11-20T06:34:06;99680.22;;;3.16;91.32
68301;BME280;55146;47.468;18.806;2022-11-20T06:36:32;99678.72;;;3.32;90.80
68301;BME280;55146;47.468;18.806;2022-11-20T06:38:57;99688.63;;;3.26;90.44
68301;BME280;55146;47.468;18.806;2022-11-20T06:41:22;99688.75;;;3.31;90.76
68301;BME280;55146;47.468;18.806;2022-11-20T06:43:48;99698.19;;;3.29;90.58
68301;BME280;55146;47.468;18.806;2022-11-20T06:46:15;99699.50;;;3.38;90.20
68301;BME280;55146;47.468;18.806;2022-11-20T06:48:43;99697.13;;;3.41;90.26
68301;BME280;55146;47.468;18.806;2022-11-20T06:51:08;99698.56;;;3.44;90.41
68301;BME280;55146;47.468;18.806;2022-11-20T06:53:34;99698.78;;;3.42;90.52
68301;BME280;55146;47.468;18.806;2022-11-20T06:56:00;99699.28;;;3.39;90.88
68301;BME280;55146;47.468;18.806;2022-11-20T06:58:30;99683.53;;;3.30;91.87
68301;BME280;55146;47.468;18.806;2022-11-20T07:00:59;99688.03;;;3.36;91.34
68301;BME280;55146;47.468;18.806;2022-11-20T07:03:25;99697.63;;;3.27;91.62
68301;BME280;55146;47.468;18.806;2022-11-20T07:05:50;99699.62;;;3.31;91.72
68301;BME280;55146;47.468;18.806;2022-11-20T07:08:16;99699.28;;;3.39;91.58
68301;BME280;55146;47.468;18.806;2022-11-20T07:10:41;99704.22;;;3.31;91.97
68301;BME280;55146;47.468;18.806;2022-11-20T07:13:06;99717.59;;;3.44;91.65
68301;BME280;55146;47.468;18.806;2022-11-20T07:15:32;99727.53;;;3.38;91.30
68301;BME280;55146;47.468;18.806;2022-11-20T07:18:01;99727.63;;;3.32;91.22
68301;BME280;55146;47.468;18.806;2022-11-20T07:20:27;99723.47;;;3.29;92.20
68301;BME280;55146;47.468;18.806;2022-11-20T07:22:54;99721.72;;;3.23;92.98
68301;BME280;55146;47.468;18.806;2022-11-20T07:25:20;99718.66;;;3.19;93.29
68301;BME280;55146;47.468;18.806;2022-11-20T07:27:45;99718.03;;;3.17;93.91
68301;BME280;55146;47.468;18.806;2022-11-20T07:30:11;99720.19;;;3.27;93.52
68301;BME280;55146;47.468;18.806;2022-11-20T07:32:36;99721.13;;;3.33;93.12
68301;BME280;55146;47.468;18.806;2022-11-20T07:35:01;99720.88;;;3.34;93.86
68301;BME280;55146;47.468;18.806;2022-11-20T07:37:27;99712.50;;;3.36;93.09
68301;BME280;55146;47.468;18.806;2022-11-20T07:39:52;99707.88;;;3.48;92.71
68301;BME280;55146;47.468;18.806;2022-11-20T07:42:17;99697.38;;;3.51;91.73
68301;BME280;55146;47.468;18.806;2022-11-20T07:44:43;99686.97;;;3.48;91.19
68301;BME280;55146;47.468;18.806;2022-11-20T07:47:08;99690.97;;;3.34;90.01
68301;BME280;55146;47.468;18.806;2022-11-20T07:49:33;99693.12;;;3.44;90.29
68301;BME280;55146;47.468;18.806;2022-11-20T07:51:58;99698.63;;;3.60;91.10
68301;BME280;55146;47.468;18.806;2022-11-20T07:54:24;99697.91;;;3.65;90.79
68301;BME280;55146;47.468;18.806;2022-11-20T07:56:49;99701.56;;;3.71;90.66
68301;BME280;55146;47.468;18.806;2022-11-20T07:59:15;99703.19;;;3.83;90.99
68301;BME280;55146;47.468;18.806;2022-11-20T08:01:41;99691.13;;;3.91;91.65
68301;BME280;55146;47.468;18.806;2022-11-20T08:04:07;99695.50;;;3.92;91.18
68301;BME280;55146;47.468;18.806;2022-11-20T08:06:32;99694.22;;;3.94;92.36
68301;BME280;55146;47.468;18.806;2022-11-20T08:08:58;99702.38;;;3.94;92.19
68301;BME280;55146;47.468;18.806;2022-11-20T08:11:23;99693.72;;;3.97;92.88
68301;BME280;55146;47.468;18.806;2022-11-20T08:14:07;99696.78;;;4.01;92.76
68301;BME280;55146;47.468;18.806;2022-11-20T08:16:40;99690.03;;;4.03;93.45
68301;BME280;55146;47.468;18.806;2022-11-20T08:19:06;99696.06;;;4.05;92.92
68301;BME280;55146;47.468;18.806;2022-11-20T08:21:32;99701.63;;;3.99;92.08
68301;BME280;55146;47.468;18.806;2022-11-20T08:23:57;99704.56;;;4.09;92.48
68301;BME280;55146;47.468;18.806;2022-11-20T08:26:23;99698.38;;;4.14;91.75
68301;BME280;55146;47.468;18.806;2022-11-20T08:28:49;99703.13;;;4.18;92.83
68301;BME280;55146;47.468;18.806;2022-11-20T08:31:14;99702.00;;;4.31;91.77
68301;BME280;55146;47.468;18.806;2022-11-20T08:33:39;99712.16;;;4.35;92.88
68301;BME280;55146;47.468;18.806;2022-11-20T08:36:06;99718.28;;;4.42;92.22
68301;BME280;55146;47.468;18.806;2022-11-20T08:38:32;99714.00;;;4.46;92.36
68301;BME280;55146;47.468;18.806;2022-11-20T08:41:02;99718.81;;;4.28;91.58
68301;BME280;55146;47.468;18.806;2022-11-20T08:43:46;99711.50;;;4.45;91.54
68301;BME280;55146;47.468;18.806;2022-11-20T08:46:11;99723.00;;;4.47;91.36
68301;BME280;55146;47.468;18.806;2022-11-20T08:48:36;99714.59;;;4.48;91.12
68301;BME280;55146;47.468;18.806;2022-11-20T08:51:02;99717.09;;;4.38;90.82
68301;BME280;55146;47.468;18.806;2022-11-20T08:53:27;99720.25;;;4.47;91.06
68301;BME280;55146;47.468;18.806;2022-11-20T08:55:53;99724.25;;;4.56;91.01
68301;BME280;55146;47.468;18.806;2022-11-20T08:58:18;99730.78;;;4.55;90.70
68301;BME280;55146;47.468;18.806;2022-11-20T09:00:44;99742.13;;;4.52;90.04
68301;BME280;55146;47.468;18.806;2022-11-20T09:03:09;99750.00;;;4.48;90.80
68301;BME280;55146;47.468;18.806;2022-11-20T09:05:34;99743.44;;;4.21;91.63
68301;BME280;55146;47.468;18.806;2022-11-20T09:07:59;99746.72;;;4.35;91.70
68301;BME280;55146;47.468;18.806;2022-11-20T09:10:26;99746.12;;;4.33;91.88
68301;BME280;55146;47.468;18.806;2022-11-20T09:12:52;99752.75;;;4.37;91.74
68301;BME280;55146;47.468;18.806;2022-11-20T09:15:18;99744.59;;;4.37;91.15
68301;BME280;55146;47.468;18.806;2022-11-20T09:17:54;99748.97;;;4.38;91.92
68301;BME280;55146;47.468;18.806;2022-11-20T09:20:19;99751.44;;;4.39;91.99
68301;BME280;55146;47.468;18.806;2022-11-20T09:22:45;99740.63;;;4.44;91.35
68301;BME280;55146;47.468;18.806;2022-11-20T09:25:10;99750.31;;;4.52;92.16
68301;BME280;55146;47.468;18.806;2022-11-20T09:27:36;99754.47;;;4.55;92.15
68301;BME280;55146;47.468;18.806;2022-11-20T09:30:02;99745.22;;;4.56;91.38
68301;BME280;55146;47.468;18.806;2022-11-20T09:32:27;99744.97;;;4.57;92.86
68301;BME280;55146;47.468;18.806;2022-11-20T09:34:52;99747.44;;;4.59;92.40
68301;BME280;55146;47.468;18.806;2022-11-20T09:37:18;99751.75;;;4.71;91.92
68301;BME280;55146;47.468;18.806;2022-11-20T09:39:43;99748.97;;;4.83;91.72
68301;BME280;55146;47.468;18.806;2022-11-20T09:56:25;99747.69;;;5.19;90.48
68301;BME280;55146;47.468;18.806;2022-11-20T09:58:52;99738.94;;;5.34;89.62
68301;BME280;55146;47.468;18.806;2022-11-20T10:01:21;99745.53;;;5.38;90.44
68301;BME280;55146;47.468;18.806;2022-11-20T10:06:32;99736.03;;;5.40;89.58
68301;BME280;55146;47.468;18.806;2022-11-20T10:11:48;99720.16;;;5.54;88.35
68301;BME280;55146;47.468;18.806;2022-11-20T10:14:53;99714.25;;;5.62;88.90
68301;BME280;55146;47.468;18.806;2022-11-20T10:25:51;99685.28;;;5.78;89.43
68301;BME280;55146;47.468;18.806;2022-11-20T10:33:54;99683.97;;;6.50;85.06
68301;BME280;55146;47.468;18.806;2022-11-20T10:37:25;99685.69;;;6.62;84.39
68301;BME280;55146;47.468;18.806;2022-11-20T10:42:43;99681.13;;;6.99;82.82
68301;BME280;55146;47.468;18.806;2022-11-20T10:47:51;99673.91;;;7.20;82.39
68301;BME280;55146;47.468;18.806;2022-11-20T10:50:20;99670.41;;;7.29;80.91
68301;BME280;55146;47.468;18.806;2022-11-20T10:55:45;99675.84;;;7.24;81.72
68301;BME280;55146;47.468;18.806;2022-11-20T11:01:04;99670.75;;;7.43;80.03
68301;BME280;55146;47.468;18.806;2022-11-20T11:03:31;99678.09;;;7.32;77.20
68301;BME280;55146;47.468;18.806;2022-11-20T11:08:50;99695.47;;;7.16;81.19
68301;BME280;55146;47.468;18.806;2022-11-20T11:11:21;99686.84;;;7.35;80.60
68301;BME280;55146;47.468;18.806;2022-11-20T11:13:48;99691.78;;;7.32;79.69
68301;BME280;55146;47.468;18.806;2022-11-20T11:16:22;99691.22;;;7.36;79.32
68301;BME280;55146;47.468;18.806;2022-11-20T11:18:48;99696.44;;;7.37;78.67
68301;BME280;55146;47.468;18.806;2022-11-20T11:21:21;99696.91;;;7.24;79.29
68301;BME280;55146;47.468;18.806;2022-11-20T11:23:57;99697.97;;;7.23;79.97
68301;BME280;55146;47.468;18.806;2022-11-20T11:26:24;99691.00;;;7.05;80.93
68301;BME280;55146;47.468;18.806;2022-11-20T11:31:28;99697.56;;;7.04;82.08
68301;BME280;55146;47.468;18.806;2022-11-20T11:34:07;99698.13;;;7.06;81.38
68301;BME280;55146;47.468;18.806;2022-11-20T11:36:34;99692.38;;;7.03;81.16
68301;BME280;55146;47.468;18.806;2022-11-20T11:39:01;99689.94;;;7.06;81.79
68301;BME280;55146;47.468;18.806;2022-11-20T11:41:32;99683.16;;;6.82;82.27
68301;BME280;55146;47.468;18.806;2022-11-20T11:46:58;99672.87;;;6.94;81.00
68301;BME280;55146;47.468;18.806;2022-11-20T11:49:24;99671.19;;;6.88;81.09
68301;BME280;55146;47.468;18.806;2022-11-20T11:52:03;99672.87;;;6.94;81.93
68301;BME280;55146;47.468;18.806;2022-11-20T11:54:51;99673.16;;;6.98;82.51
68301;BME280;55146;47.468;18.806;2022-11-20T12:00:16;99664.00;;;6.77;83.64
68301;BME280;55146;47.468;18.806;2022-11-20T12:15:35;99668.41;;;6.83;84.75
68301;BME280;55146;47.468;18.806;2022-11-20T12:18:01;99665.69;;;6.83;84.19
68301;BME280;55146;47.468;18.806;2022-11-20T12:20:32;99668.72;;;6.86;84.93
68301;BME280;55146;47.468;18.806;2022-11-20T12:23:18;99656.94;;;6.86;84.55
68301;BME280;55146;47.468;18.806;2022-11-20T12:25:48;99657.59;;;6.98;84.16
68301;BME280;55146;47.468;18.806;2022-11-20T12:31:19;99637.72;;;6.76;83.40
68301;BME280;55146;47.468;18.806;2022-11-20T12:34:22;99638.56;;;6.76;83.24
68301;BME280;55146;47.468;18.806;2022-11-20T12:36:57;99637.28;;;6.57;83.89
68301;BME280;55146;47.468;18.806;2022-11-20T12:39:35;99630.13;;;6.51;83.76
68301;BME280;55146;47.468;18.806;2022-11-20T12:42:23;99625.78;;;6.55;84.30
68301;BME280;55146;47.468;18.806;2022-11-20T12:45:26;99636.13;;;6.48;84.00
68301;BME280;55146;47.468;18.806;2022-11-20T12:48:12;99641.28;;;6.44;83.52
68301;BME280;55146;47.468;18.806;2022-11-20T12:50:51;99644.00;;;6.44;84.49
68301;BME280;55146;47.468;18.806;2022-11-20T12:53:29;99646.44;;;6.41;83.53
68301;BME280;55146;47.468;18.806;2022-11-20T12:56:24;99638.09;;;6.53;83.52
68301;BME280;55146;47.468;18.806;2022-11-20T12:59:08;99641.91;;;6.52;82.59
68301;BME280;55146;47.468;18.806;2022-11-20T13:05:21;99634.31;;;6.59;82.12
68301;BME280;55146;47.468;18.806;2022-11-20T13:07:51;99637.94;;;6.69;83.65
68301;BME280;55146;47.468;18.806;2022-11-20T13:10:34;99643.34;;;6.59;82.46
68301;BME280;55146;47.468;18.806;2022-11-20T13:13:16;99639.28;;;6.67;82.48
68301;BME280;55146;47.468;18.806;2022-11-20T13:18:20;99639.38;;;6.77;81.18
68301;BME280;55146;47.468;18.806;2022-11-20T13:20:45;99648.97;;;6.79;81.93
68301;BME280;55146;47.468;18.806;2022-11-20T13:23:23;99647.66;;;6.87;82.39
68301;BME280;55146;47.468;18.806;2022-11-20T13:25:48;99633.69;;;6.83;83.48
68301;BME280;55146;47.468;18.806;2022-11-20T13:30:51;99629.19;;;6.67;85.49
68301;BME280;55146;47.468;18.806;2022-11-20T13:33:34;99630.31;;;6.71;84.56
68301;BME280;55146;47.468;18.806;2022-11-20T13:36:04;99629.19;;;6.67;84.89
68301;BME280;55146;47.468;18.806;2022-11-20T13:38:43;99630.81;;;6.68;84.68
68301;BME280;55146;47.468;18.806;2022-11-20T13:41:09;99627.03;;;6.69;84.88
68301;BME280;55146;47.468;18.806;2022-11-20T13:43:54;99623.47;;;6.69;84.36
68301;BME280;55146;47.468;18.806;2022-11-20T13:46:22;99615.41;;;6.52;84.80
68301;BME280;55146;47.468;18.806;2022-11-20T13:48:51;99608.75;;;6.43;84.56
68301;BME280;55146;47.468;18.806;2022-11-20T13:51:41;99602.94;;;6.34;84.31
68301;BME280;55146;47.468;18.806;2022-11-20T14:00:20;99600.06;;;6.19;84.67
68301;BME280;55146;47.468;18.806;2022-11-20T14:02:59;99602.69;;;6.09;85.09
68301;BME280;55146;47.468;18.806;2022-11-20T14:05:26;99601.50;;;6.00;84.75
68301;BME280;55146;47.468;18.806;2022-11-20T14:07:53;99608.03;;;5.99;85.11
68301;BME280;55146;47.468;18.806;2022-11-20T14:12:46;99599.63;;;6.05;84.45
68301;BME280;55146;47.468;18.806;2022-11-20T14:15:31;99607.28;;;6.03;84.51
68301;BME280;55146;47.468;18.806;2022-11-20T14:17:58;99601.84;;;5.87;85.74
68301;BME280;55146;47.468;18.806;2022-11-20T14:20:28;99610.22;;;5.97;86.00
68301;BME280;55146;47.468;18.806;2022-11-20T14:22:56;99611.06;;;5.81;86.12
68301;BME280;55146;47.468;18.806;2022-11-20T14:25:23;99615.78;;;5.85;86.34
68301;BME280;55146;47.468;18.806;2022-11-20T14:28:00;99620.91;;;5.82;85.76
68301;BME280;55146;47.468;18.806;2022-11-20T14:30:28;99621.16;;;5.80;86.22
68301;BME280;55146;47.468;18.806;2022-11-20T14:32:57;99626.03;;;5.56;87.28
68301;BME280;55146;47.468;18.806;2022-11-20T14:35:28;99627.28;;;5.65;87.05
68301;BME280;55146;47.468;18.806;2022-11-20T14:37:55;99623.84;;;5.53;86.85
68301;BME280;55146;47.468;18.806;2022-11-20T14:42:49;99631.12;;;5.48;87.19
68301;BME280;55146;47.468;18.806;2022-11-20T14:45:15;99630.31;;;5.47;87.33
68301;BME280;55146;47.468;18.806;2022-11-20T14:47:41;99632.97;;;5.42;86.74